TimeMDT,TemperatureF,Dew PointF,Humidity,Sea Level PressureIn,VisibilityMPH,Wind Direction,Wind SpeedMPH,Gust SpeedMPH,PrecipitationIn,Events,Conditions,WindDirDegrees,DateUTC
12:53 AM,30.0,23.0,75,30.30,10.0,SSE,8.1,-,N/A,,Overcast,160,2012-10-07 06:53:00
1:53 AM,28.9,19.0,67,30.29,10.0,SE,5.8,-,N/A,,Scattered Clouds,130,2012-10-07 07:53:00
2:53 AM,27.0,19.9,75,30.28,10.0,WSW,3.5,-,N/A,,Clear,240,2012-10-07 08:53:00
3:53 AM,26.1,19.9,78,30.27,10.0,SE,4.6,-,N/A,,Mostly Cloudy,130,2012-10-07 09:53:00
4:53 AM,28.0,21.9,78,30.27,10.0,Calm,Calm,-,N/A,,Overcast,0,2012-10-07 10:53:00
5:53 AM,28.9,19.0,67,30.26,10.0,Calm,Calm,-,N/A,,Overcast,0,2012-10-07 11:53:00
6:53 AM,27.0,21.0,78,30.27,10.0,SW,5.8,-,N/A,,Mostly Cloudy,220,2012-10-07 12:53:00
7:53 AM,27.0,21.0,78,30.28,10.0,South,3.5,-,N/A,,Clear,180,2012-10-07 13:53:00
8:53 AM,30.0,21.9,72,30.28,10.0,WSW,3.5,-,N/A,,Clear,240,2012-10-07 14:53:00
9:53 AM,36.0,24.1,62,30.25,10.0,SW,3.5,-,N/A,,Clear,220,2012-10-07 15:53:00
11:53 AM,48.9,19.9,32,30.17,10.0,ESE,4.6,-,N/A,,Clear,110,2012-10-07 17:53:00
12:53 PM,52.0,19.0,27,30.14,10.0,Calm,Calm,-,N/A,,Clear,0,2012-10-07 18:53:00
1:53 PM,53.1,16.0,23,30.10,10.0,Calm,Calm,-,N/A,,Clear,0,2012-10-07 19:53:00
2:53 PM,55.9,19.0,24,30.06,10.0,ENE,5.8,-,N/A,,Clear,70,2012-10-07 20:53:00
3:53 PM,55.9,19.0,24,30.04,10.0,NE,6.9,-,N/A,,Clear,40,2012-10-07 21:53:00
4:53 PM,57.0,18.0,22,30.01,10.0,NE,6.9,-,N/A,,Clear,40,2012-10-07 22:53:00
5:53 PM,55.9,17.1,22,30.00,10.0,East,4.6,-,N/A,,Clear,90,2012-10-07 23:53:00
6:53 PM,46.9,21.0,36,30.02,10.0,East,6.9,-,N/A,,Clear,100,2012-10-08 00:53:00
7:53 PM,44.1,21.0,40,30.03,10.0,ESE,8.1,-,N/A,,Clear,110,2012-10-08 01:53:00
8:53 PM,45.0,23.0,42,30.03,10.0,SE,8.1,-,N/A,,Clear,130,2012-10-08 02:53:00
9:53 PM,42.1,24.1,49,30.02,10.0,SE,4.6,-,N/A,,Clear,130,2012-10-08 03:53:00
10:53 PM,37.0,25.0,62,30.01,10.0,NNE,3.5,-,N/A,,Clear,20,2012-10-08 04:53:00
11:53 PM,35.1,24.1,64,30.01,10.0,South,5.8,-,N/A,,Clear,190,2012-10-08 05:53:00